createdAt,value
2023-01-26T00:00:00.118Z, 100
2023-01-26T00:02:00.281Z, 99.7
2023-01-26T00:04:00.368Z, 99.6
2023-01-26T00:06:00.101Z, 99.3
2023-01-26T00:08:00.099Z, 99
2023-01-26T00:10:00.110Z, 98.7
2023-01-26T00:12:00.113Z, 98.7
2023-01-26T00:14:00.104Z, 99.1
2023-01-26T00:16:00.462Z, 99.5
2023-01-26T00:18:00.095Z, 99.7
2023-01-26T00:20:00.097Z, 100
2023-01-26T00:22:00.115Z, 100
2023-01-26T00:24:00.124Z, 100
2023-01-26T00:26:00.102Z, 100
2023-01-26T00:28:00.087Z, 100
2023-01-26T00:30:00.114Z, 100
2023-01-26T00:32:00.096Z, 100
2023-01-26T00:34:00.076Z, 100
2023-01-26T00:36:00.112Z, 100
2023-01-26T00:38:00.126Z, 100
2023-01-26T00:40:00.127Z, 100
2023-01-26T00:42:00.115Z, 100
2023-01-26T00:44:00.097Z, 100
2023-01-26T00:46:00.121Z, 100
2023-01-26T00:48:00.102Z, 100
2023-01-26T00:50:00.108Z, 100
2023-01-26T00:52:00.103Z, 100
2023-01-26T00:54:00.106Z, 100
2023-01-26T00:56:00.109Z, 100
2023-01-26T00:58:00.107Z, 100
2023-01-26T01:00:00.232Z, 100
2023-01-26T01:02:00.205Z, 100
2023-01-26T01:04:00.104Z, 100
2023-01-26T01:06:00.106Z, 100
2023-01-26T01:08:00.127Z, 100
2023-01-26T01:10:00.111Z, 100
2023-01-26T01:12:00.109Z, 100
2023-01-26T01:14:00.106Z, 100
2023-01-26T01:16:00.127Z, 100
2023-01-26T01:18:00.098Z, 100
2023-01-26T01:20:00.282Z, 100
2023-01-26T01:22:00.086Z, 100
2023-01-26T01:24:00.203Z, 100
2023-01-26T01:26:00.095Z, 100
2023-01-26T01:28:00.117Z, 100
2023-01-26T01:30:00.146Z, 100
2023-01-26T01:32:00.202Z, 100
2023-01-26T01:34:00.114Z, 100
2023-01-26T01:36:00.086Z, 100
2023-01-26T01:38:00.097Z, 100
2023-01-26T01:40:00.153Z, 100
2023-01-26T01:42:00.096Z, 100
2023-01-26T01:44:00.101Z, 100
2023-01-26T01:46:00.102Z, 100
2023-01-26T01:48:00.090Z, 100
2023-01-26T01:50:00.267Z, 100
2023-01-26T01:52:00.081Z, 100
2023-01-26T01:54:00.109Z, 100
2023-01-26T01:56:00.102Z, 100
2023-01-26T01:58:00.132Z, 100
2023-01-26T02:00:00.110Z, 100
2023-01-26T02:02:00.139Z, 100
2023-01-26T02:04:00.122Z, 100
2023-01-26T02:06:00.129Z, 100
2023-01-26T02:08:00.111Z, 100
2023-01-26T02:10:00.124Z, 100
2023-01-26T02:12:00.106Z, 100
2023-01-26T02:14:00.142Z, 100
2023-01-26T02:16:00.188Z, 100
2023-01-26T02:18:00.118Z, 100
2023-01-26T02:20:00.112Z, 100
2023-01-26T02:22:00.131Z, 99.9
2023-01-26T02:24:00.213Z, 99.9
2023-01-26T02:26:00.090Z, 99.6
2023-01-26T02:28:00.102Z, 99.2
2023-01-26T02:30:00.092Z, 98.9
2023-01-26T02:32:00.102Z, 98.5
2023-01-26T02:34:00.104Z, 98.3
2023-01-26T02:36:00.093Z, 98.5
2023-01-26T02:38:00.098Z, 98.5
2023-01-26T02:40:00.136Z, 98.1
2023-01-26T02:42:00.142Z, 98
2023-01-26T02:44:00.128Z, 98
2023-01-26T02:46:00.258Z, 97.9
2023-01-26T02:48:00.117Z, 97.8
2023-01-26T02:50:00.092Z, 97.7
2023-01-26T02:52:00.097Z, 97.8
2023-01-26T02:54:00.094Z, 97.8
2023-01-26T02:56:00.124Z, 97.4
2023-01-26T02:58:00.124Z, 97.1
2023-01-26T03:00:00.115Z, 96.7
2023-01-26T03:02:00.148Z, 96.2
2023-01-26T03:04:00.112Z, 96
2023-01-26T03:06:00.101Z, 96
2023-01-26T03:08:00.129Z, 96.2
2023-01-26T03:10:00.125Z, 96.3
2023-01-26T03:12:00.119Z, 96.3
2023-01-26T03:14:00.096Z, 96.1
2023-01-26T03:16:00.120Z, 95.9
2023-01-26T03:18:00.109Z, 95.9
2023-01-26T03:20:00.112Z, 95.9
2023-01-26T03:22:00.107Z, 95.7
2023-01-26T03:24:00.147Z, 95.4
2023-01-26T03:26:00.100Z, 95.2
2023-01-26T03:28:00.116Z, 94.8
2023-01-26T03:30:00.124Z, 94.5
2023-01-26T03:32:00.106Z, 94.4
2023-01-26T03:34:00.098Z, 94.4
2023-01-26T03:36:00.124Z, 94.4
2023-01-26T03:38:00.174Z, 94.3
2023-01-26T03:40:00.102Z, 94.3
2023-01-26T03:42:00.085Z, 94.4
2023-01-26T03:44:00.098Z, 94.5
2023-01-26T03:46:00.132Z, 94.2
2023-01-26T03:48:00.085Z, 93.7
2023-01-26T03:50:00.119Z, 93.5
2023-01-26T03:52:00.082Z, 93.5
2023-01-26T03:54:00.110Z, 93.4
2023-01-26T03:56:00.102Z, 93.7
2023-01-26T03:58:00.110Z, 93.7
2023-01-26T04:00:00.096Z, 93.7
2023-01-26T04:02:00.149Z, 93.8
2023-01-26T04:04:00.093Z, 93.7
2023-01-26T04:06:16.142Z, 93.8
2023-01-26T04:08:00.114Z, 94
2023-01-26T04:10:00.107Z, 93.8
2023-01-26T04:12:00.112Z, 93.8
2023-01-26T04:14:00.079Z, 94
2023-01-26T04:16:00.102Z, 94.2
2023-01-26T04:18:00.099Z, 94.3
2023-01-26T04:20:00.115Z, 94.3
2023-01-26T04:22:00.111Z, 94.1
2023-01-26T04:24:00.153Z, 93.7
2023-01-26T04:26:00.105Z, 93.8
2023-01-26T04:28:00.107Z, 93.7
2023-01-26T04:30:00.133Z, 93.9
2023-01-26T04:32:00.097Z, 94.3
2023-01-26T04:34:00.078Z, 94.7
2023-01-26T04:36:00.102Z, 95
2023-01-26T04:38:00.095Z, 95.1
2023-01-26T04:40:00.129Z, 95.1
2023-01-26T04:42:00.100Z, 95.3
2023-01-26T04:44:00.126Z, 95.6
2023-01-26T04:46:00.138Z, 95.7
2023-01-26T04:48:00.125Z, 95.7
2023-01-26T04:50:00.092Z, 95.6
2023-01-26T04:52:00.117Z, 95.5
2023-01-26T04:54:00.115Z, 95.4
2023-01-26T04:56:00.122Z, 95.1
2023-01-26T04:58:00.138Z, 94.8
2023-01-26T05:00:00.135Z, 94.9
2023-01-26T05:02:00.107Z, 94.9
2023-01-26T05:04:00.207Z, 95.2
2023-01-26T05:06:00.115Z, 95.4
2023-01-26T05:08:00.099Z, 95.5
2023-01-26T05:10:00.134Z, 95.5
2023-01-26T05:12:00.104Z, 95.5
2023-01-26T05:14:00.092Z, 95.4
2023-01-26T05:16:00.091Z, 95.5
2023-01-26T05:18:00.146Z, 95.6
2023-01-26T05:20:00.111Z, 95.6
2023-01-26T05:22:00.112Z, 95.2
2023-01-26T05:24:00.146Z, 95.1
2023-01-26T05:26:00.086Z, 94.6
2023-01-26T05:28:00.099Z, 94.4
2023-01-26T05:30:00.105Z, 94
2023-01-26T05:32:00.204Z, 93.7
2023-01-26T05:34:00.100Z, 93.6
2023-01-26T05:36:00.099Z, 93.6
2023-01-26T05:38:00.096Z, 93.6
2023-01-26T05:40:00.096Z, 93.4
2023-01-26T05:42:00.113Z, 93.6
2023-01-26T05:44:00.115Z, 93.7
2023-01-26T05:46:00.162Z, 94.1
2023-01-26T05:48:00.089Z, 94.4
2023-01-26T05:50:00.104Z, 94.3
2023-01-26T05:52:00.105Z, 93.7
2023-01-26T05:54:00.105Z, 93.4
2023-01-26T05:56:00.136Z, 93.5
2023-01-26T05:58:00.106Z, 93.1
2023-01-26T06:00:00.128Z, 92.6
2023-01-26T06:02:00.567Z, 92.7
2023-01-26T06:04:00.173Z, 92.6
2023-01-26T06:06:00.126Z, 92.9
2023-01-26T06:08:00.116Z, 93.1
2023-01-26T06:10:00.126Z, 93.1
2023-01-26T06:12:00.136Z, 93
2023-01-26T06:14:00.122Z, 93
2023-01-26T06:16:00.107Z, 92.6
2023-01-26T06:18:00.116Z, 92.6
2023-01-26T06:20:00.141Z, 92.5
2023-01-26T06:22:00.121Z, 92.3
2023-01-26T06:24:00.170Z, 92.2
2023-01-26T06:26:00.110Z, 92.2
2023-01-26T06:28:00.101Z, 91.9
2023-01-26T06:30:00.121Z, 92.2
2023-01-26T06:32:00.098Z, 92.3
2023-01-26T06:34:00.111Z, 92.5
2023-01-26T06:36:00.097Z, 92.8
2023-01-26T06:38:00.315Z, 92.8
2023-01-26T06:40:00.125Z, 93
2023-01-26T06:42:00.103Z, 92.8
2023-01-26T06:44:00.070Z, 93.2
2023-01-26T06:46:00.104Z, 93.3
2023-01-26T06:48:00.136Z, 93.1
2023-01-26T06:50:00.122Z, 93.2
2023-01-26T06:52:00.096Z, 92.9
2023-01-26T06:54:00.104Z, 93
2023-01-26T06:56:00.112Z, 92.8
2023-01-26T06:58:00.099Z, 92.4
2023-01-26T07:00:00.133Z, 92.2
2023-01-26T07:02:00.098Z, 92
2023-01-26T07:04:00.113Z, 92.4
2023-01-26T07:06:00.098Z, 92.5
2023-01-26T07:08:00.111Z, 92.7
2023-01-26T07:10:00.132Z, 92.6
2023-01-26T07:12:00.142Z, 92.8
2023-01-26T07:14:00.109Z, 92.9
2023-01-26T07:16:00.176Z, 92.9
2023-01-26T07:18:00.097Z, 92.8
2023-01-26T07:20:00.114Z, 92.5
2023-01-26T07:22:00.100Z, 92.6
2023-01-26T07:24:00.154Z, 92.3
2023-01-26T07:26:00.099Z, 92.5
2023-01-26T07:28:00.135Z, 92.6
2023-01-26T07:30:00.108Z, 92.5
2023-01-26T07:32:00.162Z, 92.3
2023-01-26T07:34:00.100Z, 92.6
2023-01-26T07:36:00.109Z, 92.7
2023-01-26T07:38:00.094Z, 92.8
2023-01-26T07:40:00.363Z, 92.5
2023-01-26T07:42:00.117Z, 92.6
2023-01-26T07:44:00.191Z, 92.6
2023-01-26T07:46:00.125Z, 92.6
2023-01-26T07:48:00.118Z, 92.8
2023-01-26T07:50:00.121Z, 93
2023-01-26T07:52:00.115Z, 92.7
2023-01-26T07:54:00.110Z, 92.7
2023-01-26T07:56:00.108Z, 92.7
2023-01-26T07:58:00.096Z, 92.5
2023-01-26T08:00:00.107Z, 92.7
2023-01-26T08:02:00.131Z, 92.6
2023-01-26T08:04:00.097Z, 92.8
2023-01-26T08:06:00.129Z, 93
2023-01-26T08:08:00.101Z, 93
2023-01-26T08:10:00.110Z, 93
2023-01-26T08:12:00.107Z, 92.9
2023-01-26T08:14:00.126Z, 92.8
2023-01-26T08:16:00.107Z, 92.8
2023-01-26T08:18:00.111Z, 93.1
2023-01-26T08:20:00.128Z, 92.6
2023-01-26T08:22:00.103Z, 92.5
2023-01-26T08:24:00.155Z, 92.1
2023-01-26T08:26:00.155Z, 91.9
2023-01-26T08:28:00.098Z, 91.8
2023-01-26T08:30:00.181Z, 91.6
2023-01-26T08:32:00.136Z, 91.6
2023-01-26T08:34:00.105Z, 91.4
2023-01-26T08:36:00.105Z, 91.3
2023-01-26T08:38:00.098Z, 90.7
2023-01-26T08:40:00.098Z, 90.2
2023-01-26T08:42:00.116Z, 90.1
2023-01-26T08:44:00.123Z, 90
2023-01-26T08:46:00.139Z, 89.7
2023-01-26T08:48:00.141Z, 89.7
2023-01-26T08:50:00.108Z, 89.6
2023-01-26T08:52:00.135Z, 89.4
2023-01-26T08:54:00.122Z, 89.3
2023-01-26T08:56:00.103Z, 89.2
2023-01-26T08:58:00.098Z, 88.9
2023-01-26T09:00:00.110Z, 88.5
2023-01-26T09:02:00.243Z, 87.6
2023-01-26T09:04:00.084Z, 87.1
2023-01-26T09:06:00.103Z, 86.5
2023-01-26T09:08:00.090Z, 85.9
2023-01-26T09:10:00.441Z, 86
2023-01-26T09:12:00.232Z, 86
2023-01-26T09:14:00.132Z, 86
2023-01-26T09:16:00.071Z, 86
2023-01-26T09:18:01.148Z, 86.4
2023-01-26T09:20:00.110Z, 85.8
2023-01-26T09:22:00.069Z, 86
2023-01-26T09:24:00.189Z, 86.1
2023-01-26T09:26:00.081Z, 87
2023-01-26T09:28:00.087Z, 87
2023-01-26T09:30:00.147Z, 86.7
2023-01-26T09:32:00.236Z, 86.7
2023-01-26T09:34:00.090Z, 87.3
2023-01-26T09:36:00.067Z, 86.7
2023-01-26T09:38:00.074Z, 87.2
2023-01-26T09:40:00.087Z, 86.9
2023-01-26T09:42:00.103Z, 86.9
2023-01-26T09:44:00.124Z, 87.1
2023-01-26T09:46:00.193Z, 87.9
2023-01-26T09:48:00.072Z, 87.8
2023-01-26T09:50:01.020Z, 87.8
2023-01-26T09:52:00.789Z, 87.4
2023-01-26T09:54:00.072Z, 87.2
2023-01-26T09:56:00.073Z, 87.2
2023-01-26T09:58:00.077Z, 87.5
2023-01-26T10:00:00.085Z, 88.3
2023-01-26T10:02:00.077Z, 88.5
2023-01-26T10:04:01.102Z, 89
2023-01-26T10:06:00.109Z, 89.2
2023-01-26T10:08:00.076Z, 89.3
2023-01-26T10:10:00.102Z, 89.2
2023-01-26T10:12:00.072Z, 89.1
2023-01-26T10:14:00.066Z, 88.3
2023-01-26T10:16:00.132Z, 88.7
2023-01-26T10:18:00.074Z, 88.7
2023-01-26T10:20:00.083Z, 88.9
2023-01-26T10:22:00.076Z, 88.2
2023-01-26T10:24:00.140Z, 87.2
2023-01-26T10:26:00.075Z, 86.9
2023-01-26T10:28:00.069Z, 87.4
2023-01-26T10:30:00.075Z, 88.3
2023-01-26T10:32:00.105Z, 88.7
2023-01-26T10:34:00.152Z, 88.9
2023-01-26T10:36:00.083Z, 89.7
2023-01-26T10:38:00.078Z, 89.8
2023-01-26T10:40:00.079Z, 90.6
2023-01-26T10:42:00.089Z, 90.6
2023-01-26T10:44:00.078Z, 90.7
2023-01-26T10:46:00.079Z, 90.7
2023-01-26T10:48:00.352Z, 91.2
2023-01-26T10:50:00.083Z, 92
2023-01-26T10:52:00.070Z, 91.6
2023-01-26T10:54:00.086Z, 91.2
2023-01-26T10:56:00.078Z, 91.4
2023-01-26T10:58:00.112Z, 91.6
2023-01-26T11:00:00.140Z, 91.6
2023-01-26T11:02:00.075Z, 91.7
2023-01-26T11:04:00.077Z, 91.9
2023-01-26T11:06:00.076Z, 91.8
2023-01-26T11:08:00.088Z, 91.5
2023-01-26T11:10:00.077Z, 91.2
2023-01-26T11:12:00.074Z, 91.6
2023-01-26T11:14:00.092Z, 91.5
2023-01-26T11:16:00.232Z, 91.5
2023-01-26T11:18:00.077Z, 91.8
2023-01-26T11:20:00.103Z, 92
2023-01-26T11:22:00.065Z, 91.9
2023-01-26T11:24:00.176Z, 91.6
2023-01-26T11:26:00.091Z, 91
2023-01-26T11:28:00.087Z, 90.7
2023-01-26T11:30:00.107Z, 90.6
2023-01-26T11:32:00.083Z, 90.5
2023-01-26T11:34:00.077Z, 90.5
2023-01-26T11:36:00.084Z, 90
2023-01-26T11:38:00.122Z, 89.8
2023-01-26T11:40:00.306Z, 89.6
2023-01-26T11:42:00.212Z, 89.1
2023-01-26T11:44:00.082Z, 88.7
2023-01-26T11:46:00.120Z, 88.2
2023-01-26T11:48:00.094Z, 87.8
2023-01-26T11:50:00.128Z, 87.5
2023-01-26T11:52:00.086Z, 87.3
2023-01-26T11:54:00.084Z, 86.6
2023-01-26T11:56:00.080Z, 86.2
2023-01-26T11:58:00.077Z, 86.6
2023-01-26T12:00:00.085Z, 86.5
2023-01-26T12:02:00.191Z, 86
2023-01-26T12:04:00.076Z, 85.5
2023-01-26T12:06:00.080Z, 85.9
2023-01-26T12:08:00.074Z, 86.5
2023-01-26T12:10:00.081Z, 86.8
2023-01-26T12:12:00.089Z, 86.9
2023-01-26T12:14:00.087Z, 87.6
2023-01-26T12:16:00.075Z, 87.6
2023-01-26T12:18:00.082Z, 87
2023-01-26T12:20:00.107Z, 87.1
2023-01-26T12:22:00.181Z, 87.5
2023-01-26T12:24:00.249Z, 87.4
2023-01-26T12:26:00.266Z, 86.9
2023-01-26T12:28:00.096Z, 87
2023-01-26T12:30:00.086Z, 87
2023-01-26T12:32:00.075Z, 87.1
2023-01-26T12:34:00.109Z, 87.8
2023-01-26T12:36:00.085Z, 87.5
2023-01-26T12:38:16.721Z, 87.6
2023-01-26T12:40:00.083Z, 87.6
2023-01-26T12:42:00.082Z, 87.4
2023-01-26T12:44:00.077Z, 86.7
2023-01-26T12:46:00.898Z, 86.9
2023-01-26T12:48:00.102Z, 86.6
2023-01-26T12:50:00.200Z, 86.8
2023-01-26T12:52:00.066Z, 87.4
2023-01-26T12:54:00.085Z, 87.9
2023-01-26T12:56:00.070Z, 88.3
2023-01-26T12:58:00.090Z, 88.6
2023-01-26T13:00:00.085Z, 89.1
2023-01-26T13:02:00.068Z, 89.5
2023-01-26T13:04:00.121Z, 89.6
2023-01-26T13:06:00.097Z, 89.6
2023-01-26T13:08:00.078Z, 89.7
2023-01-26T13:10:00.082Z, 89.8
2023-01-26T13:12:00.104Z, 89.3
2023-01-26T13:14:00.089Z, 89.4
2023-01-26T13:16:00.160Z, 89.7
2023-01-26T13:18:00.071Z, 89.4
2023-01-26T13:20:00.366Z, 88.8
2023-01-26T13:22:00.185Z, 88.6
2023-01-26T13:24:00.244Z, 88.6
2023-01-26T13:26:09.662Z, 88.7
2023-01-26T13:28:00.082Z, 88.6
2023-01-26T13:30:00.110Z, 88
2023-01-26T13:32:00.076Z, 88.1
2023-01-26T13:34:00.088Z, 88.4
2023-01-26T13:36:00.120Z, 88.9
2023-01-26T13:38:00.074Z, 89.1
2023-01-26T13:40:00.077Z, 89.3
2023-01-26T13:42:00.073Z, 89.2
2023-01-26T13:44:00.075Z, 89.8
2023-01-26T13:46:00.100Z, 89.8
2023-01-26T13:48:00.072Z, 90.1
2023-01-26T13:50:00.083Z, 90.5
2023-01-26T13:52:00.076Z, 90.9
2023-01-26T13:54:00.090Z, 91.2
2023-01-26T13:56:00.075Z, 91.7
2023-01-26T13:58:00.071Z, 91.8
2023-01-26T14:00:00.074Z, 91.6
2023-01-26T14:02:00.254Z, 91.6
2023-01-26T14:04:00.082Z, 91.3
2023-01-26T14:06:00.077Z, 91
2023-01-26T14:08:00.100Z, 91.3
2023-01-26T14:10:01.666Z, 91.4
2023-01-26T14:12:00.163Z, 91.1
2023-01-26T14:14:00.169Z, 91
2023-01-26T14:16:00.255Z, 91
2023-01-26T14:18:00.193Z, 90.5
2023-01-26T14:20:00.156Z, 90.2
2023-01-26T14:22:00.059Z, 90.1
2023-01-26T14:24:00.122Z, 89.8
2023-01-26T14:26:00.227Z, 89.4
2023-01-26T14:28:00.381Z, 89.4
2023-01-26T14:30:00.048Z, 89.6
2023-01-26T14:32:00.041Z, 89.4
2023-01-26T14:34:00.072Z, 89.5
2023-01-26T14:36:00.048Z, 89.3
2023-01-26T14:38:00.081Z, 89.2
2023-01-26T14:40:00.107Z, 89.1
2023-01-26T14:42:00.089Z, 89.2
2023-01-26T14:44:00.263Z, 89.3
2023-01-26T14:46:00.098Z, 89.5
2023-01-26T14:48:00.089Z, 89.8
2023-01-26T14:50:00.083Z, 89.8
2023-01-26T14:52:00.067Z, 90.1
2023-01-26T14:54:00.076Z, 90.4
2023-01-26T14:56:00.073Z, 90.6
2023-01-26T14:58:00.094Z, 90.5
2023-01-26T15:00:00.086Z, 90.8
2023-01-26T15:02:00.136Z, 91
2023-01-26T15:04:00.104Z, 90.8
2023-01-26T15:06:00.155Z, 91
2023-01-26T15:08:00.079Z, 91.7
2023-01-26T15:10:00.076Z, 92.3
2023-01-26T15:12:00.068Z, 92.8
2023-01-26T15:14:00.094Z, 93.3
2023-01-26T15:16:00.219Z, 93.8
2023-01-26T15:18:00.073Z, 93.9
2023-01-26T15:20:00.108Z, 94.6
2023-01-26T15:22:00.070Z, 94.9
2023-01-26T15:24:00.117Z, 95.5
2023-01-26T15:26:00.092Z, 96.2
2023-01-26T15:28:00.090Z, 96.4
2023-01-26T15:30:00.208Z, 97.2
2023-01-26T15:32:00.132Z, 97.7
2023-01-26T15:34:00.087Z, 98.3
2023-01-26T15:36:00.066Z, 98.6
2023-01-26T15:38:00.103Z, 98.9
2023-01-26T15:40:00.323Z, 99.2
2023-01-26T15:42:00.072Z, 99.5
2023-01-26T15:44:00.079Z, 100
2023-01-26T15:46:00.087Z, 100
2023-01-26T15:48:00.078Z, 100
2023-01-26T15:50:00.174Z, 100
2023-01-26T15:52:00.085Z, 100
2023-01-26T15:54:00.084Z, 100
2023-01-26T15:56:00.072Z, 100
2023-01-26T15:58:00.103Z, 100
2023-01-26T16:00:00.097Z, 100
2023-01-26T16:02:00.267Z, 100
2023-01-26T16:04:00.090Z, 100
2023-01-26T16:06:00.079Z, 100
2023-01-26T16:08:00.099Z, 100
2023-01-26T16:10:01.227Z, 100
2023-01-26T16:12:00.111Z, 100
2023-01-26T16:14:03.519Z, 100
2023-01-26T16:16:00.128Z, 100
2023-01-26T16:18:00.083Z, 100
2023-01-26T16:20:00.082Z, 100
2023-01-26T16:22:00.068Z, 100
2023-01-26T16:24:00.152Z, 100
2023-01-26T16:26:00.117Z, 100
2023-01-26T16:28:00.077Z, 100
2023-01-26T16:30:00.075Z, 100
2023-01-26T16:32:00.181Z, 100
2023-01-26T16:34:00.103Z, 100
2023-01-26T16:36:00.083Z, 100
2023-01-26T16:38:00.071Z, 100
2023-01-26T16:40:00.091Z, 100
2023-01-26T16:42:00.093Z, 100
2023-01-26T16:44:00.072Z, 100
2023-01-26T16:46:00.129Z, 100
2023-01-26T16:48:00.095Z, 100
2023-01-26T16:50:00.094Z, 100
2023-01-26T16:52:00.069Z, 100
2023-01-26T16:54:00.106Z, 100
2023-01-26T16:56:00.071Z, 100
2023-01-26T16:58:00.074Z, 100
2023-01-26T17:00:00.095Z, 100
2023-01-26T17:02:00.148Z, 100
2023-01-26T17:04:00.101Z, 100
2023-01-26T17:06:00.102Z, 100
2023-01-26T17:08:00.110Z, 100
2023-01-26T17:10:00.084Z, 100
2023-01-26T17:12:00.070Z, 100
2023-01-26T17:14:00.072Z, 100
2023-01-26T17:16:00.083Z, 100
2023-01-26T17:18:00.074Z, 100
2023-01-26T17:20:16.545Z, 100
2023-01-26T17:22:00.079Z, 100
2023-01-26T17:24:00.134Z, 100
2023-01-26T17:26:00.090Z, 100
2023-01-26T17:28:00.079Z, 100
2023-01-26T17:30:00.075Z, 100
2023-01-26T17:32:00.268Z, 100
2023-01-26T17:34:00.079Z, 100
2023-01-26T17:36:00.073Z, 100
2023-01-26T17:38:00.117Z, 100
2023-01-26T17:40:00.082Z, 100
2023-01-26T17:42:00.071Z, 100
2023-01-26T17:44:00.099Z, 100
2023-01-26T17:46:00.153Z, 100
2023-01-26T17:48:00.068Z, 100
2023-01-26T17:50:00.090Z, 100
2023-01-26T17:52:00.082Z, 100
2023-01-26T17:54:00.091Z, 100
2023-01-26T17:56:00.073Z, 100
2023-01-26T17:58:00.076Z, 100
2023-01-26T18:00:00.096Z, 100
2023-01-26T18:02:00.255Z, 100
2023-01-26T18:04:00.071Z, 100
2023-01-26T18:06:00.085Z, 100
2023-01-26T18:08:00.077Z, 100
2023-01-26T18:10:00.076Z, 100
2023-01-26T18:12:00.083Z, 100
2023-01-26T18:14:00.103Z, 100
2023-01-26T18:16:00.080Z, 100
2023-01-26T18:18:00.086Z, 100
2023-01-26T18:20:00.085Z, 100
2023-01-26T18:22:00.075Z, 100
2023-01-26T18:24:00.226Z, 100
2023-01-26T18:26:00.074Z, 100
2023-01-26T18:28:00.116Z, 100
2023-01-26T18:30:00.077Z, 100
2023-01-26T18:32:00.177Z, 100
2023-01-26T18:34:00.142Z, 100
2023-01-26T18:36:00.080Z, 100
2023-01-26T18:38:00.075Z, 100
2023-01-26T18:40:00.118Z, 100
2023-01-26T18:42:00.080Z, 100
2023-01-26T18:44:00.077Z, 100
2023-01-26T18:46:00.184Z, 100
2023-01-26T18:48:00.132Z, 100
2023-01-26T18:50:00.124Z, 100
2023-01-26T18:52:00.074Z, 100
2023-01-26T18:54:00.188Z, 100
2023-01-26T18:56:00.118Z, 100
2023-01-26T18:58:00.084Z, 100
2023-01-26T19:00:00.125Z, 100
2023-01-26T19:02:00.179Z, 100
2023-01-26T19:04:00.090Z, 100
2023-01-26T19:06:00.098Z, 100
2023-01-26T19:08:00.113Z, 100
2023-01-26T19:10:00.104Z, 100
2023-01-26T19:12:00.121Z, 100
2023-01-26T19:14:00.078Z, 100
2023-01-26T19:16:00.092Z, 100
2023-01-26T19:18:00.094Z, 100
2023-01-26T19:20:00.107Z, 99.6
2023-01-26T19:22:00.097Z, 99.4
2023-01-26T19:24:00.221Z, 99.2
2023-01-26T19:26:00.100Z, 98.8
2023-01-26T19:28:00.121Z, 98.8
2023-01-26T19:30:00.101Z, 98.8
2023-01-26T19:32:00.216Z, 98.8
2023-01-26T19:34:00.131Z, 98.6
2023-01-26T19:36:00.089Z, 98.6
2023-01-26T19:38:00.091Z, 98.4
2023-01-26T19:40:00.123Z, 98.1
2023-01-26T19:42:00.186Z, 97.8
2023-01-26T19:44:00.108Z, 97.6
2023-01-26T19:46:00.246Z, 97.2
2023-01-26T19:48:00.099Z, 97
2023-01-26T19:50:00.369Z, 96.7
2023-01-26T19:52:00.110Z, 96.5
2023-01-26T19:54:00.096Z, 96.3
2023-01-26T19:56:00.096Z, 96.3
2023-01-26T19:58:00.099Z, 96.3
2023-01-26T20:00:00.118Z, 96.1
2023-01-26T20:02:00.142Z, 95.9
2023-01-26T20:04:00.087Z, 96
2023-01-26T20:06:00.116Z, 96.3
2023-01-26T20:08:00.102Z, 96.3
2023-01-26T20:10:00.121Z, 96.2
2023-01-26T20:12:00.104Z, 96.2
2023-01-26T20:14:00.124Z, 96.2
2023-01-26T20:16:00.102Z, 96
2023-01-26T20:18:00.112Z, 95.9
2023-01-26T20:20:00.099Z, 95.9
2023-01-26T20:22:00.104Z, 96.1
2023-01-26T20:24:05.558Z, 96.3
2023-01-26T20:26:00.071Z, 96.3
2023-01-26T20:28:00.094Z, 96.5
2023-01-26T20:30:00.104Z, 96.6
2023-01-26T20:32:00.160Z, 96.5
2023-01-26T20:34:00.090Z, 96.5
2023-01-26T20:36:00.119Z, 96.8
2023-01-26T20:38:00.104Z, 96.6
2023-01-26T20:40:00.119Z, 96.3
2023-01-26T20:42:00.105Z, 95.8
2023-01-26T20:44:01.630Z, 95.4
2023-01-26T20:46:00.164Z, 95.1
2023-01-26T20:48:00.095Z, 94.8
2023-01-26T20:50:00.095Z, 94.6
2023-01-26T20:52:00.096Z, 94.3
2023-01-26T20:54:00.085Z, 94.1
2023-01-26T20:56:00.101Z, 93.9
2023-01-26T20:58:00.093Z, 94.1
2023-01-26T21:00:00.103Z, 93.8
2023-01-26T21:02:00.167Z, 93.4
2023-01-26T21:04:00.111Z, 93
2023-01-26T21:06:00.097Z, 93.1
2023-01-26T21:08:00.105Z, 93.5
2023-01-26T21:10:00.104Z, 93.5
2023-01-26T21:12:00.075Z, 93.7
2023-01-26T21:14:00.112Z, 94
2023-01-26T21:16:00.166Z, 93.9
2023-01-26T21:18:00.116Z, 93.7
2023-01-26T21:20:00.108Z, 93.6
2023-01-26T21:22:00.113Z, 93.6
2023-01-26T21:24:00.173Z, 93.7
2023-01-26T21:26:00.112Z, 93.7
2023-01-26T21:28:00.171Z, 93.5
2023-01-26T21:30:00.113Z, 93.5
2023-01-26T21:32:00.099Z, 93.5
2023-01-26T21:34:00.239Z, 93.8
2023-01-26T21:36:00.085Z, 94.2
2023-01-26T21:38:00.131Z, 94.5
2023-01-26T21:40:00.121Z, 95.2
2023-01-26T21:42:00.076Z, 95.4
2023-01-26T21:44:00.081Z, 95.4
2023-01-26T21:46:00.185Z, 94.9
2023-01-26T21:48:00.105Z, 94.5
2023-01-26T21:50:00.096Z, 94.3
2023-01-26T21:52:00.110Z, 93.8
2023-01-26T21:54:00.121Z, 93.3
2023-01-26T21:56:00.091Z, 93.4
2023-01-26T21:58:00.112Z, 93.8
2023-01-26T22:00:00.124Z, 94.1
2023-01-26T22:02:00.074Z, 94.5
2023-01-26T22:04:00.183Z, 94.6
2023-01-26T22:06:00.091Z, 94.8
2023-01-26T22:08:00.102Z, 94.9
2023-01-26T22:10:00.097Z, 94.7
2023-01-26T22:12:00.100Z, 94.3
2023-01-26T22:14:00.104Z, 94.3
2023-01-26T22:16:01.540Z, 94.4
2023-01-26T22:18:00.091Z, 94.5
2023-01-26T22:20:00.109Z, 94.3
2023-01-26T22:22:00.109Z, 94.3
2023-01-26T22:24:00.141Z, 94.4
2023-01-26T22:26:00.261Z, 94.3
2023-01-26T22:28:00.368Z, 94.3
2023-01-26T22:30:00.171Z, 94.3
2023-01-26T22:32:00.286Z, 94.3
2023-01-26T22:34:00.138Z, 94.1
2023-01-26T22:36:00.119Z, 94.1
2023-01-26T22:38:00.125Z, 94.5
2023-01-26T22:40:00.117Z, 95
2023-01-26T22:42:00.096Z, 95.3
2023-01-26T22:44:00.138Z, 95.4
2023-01-26T22:46:00.155Z, 95.5
2023-01-26T22:48:00.101Z, 95.5
2023-01-26T22:50:00.085Z, 95.7
2023-01-26T22:52:00.092Z, 95.9
2023-01-26T22:54:00.113Z, 95.8
2023-01-26T22:56:00.208Z, 95.6
2023-01-26T22:58:00.117Z, 95.4
2023-01-26T23:00:00.152Z, 95.3
2023-01-26T23:02:00.105Z, 95.2
2023-01-26T23:04:00.202Z, 95.3
2023-01-26T23:06:00.120Z, 94.8
2023-01-26T23:08:00.100Z, 94.5
2023-01-26T23:10:00.128Z, 94.2
2023-01-26T23:12:00.100Z, 93.7
2023-01-26T23:14:00.125Z, 93.8
2023-01-26T23:16:00.119Z, 93.6
2023-01-26T23:18:00.113Z, 93.6
2023-01-26T23:20:00.102Z, 93.8
2023-01-26T23:22:00.115Z, 93.9
2023-01-26T23:24:00.183Z, 94.1
2023-01-26T23:26:00.125Z, 94.2
2023-01-26T23:28:00.099Z, 94.3
2023-01-26T23:30:02.745Z, 94.7
2023-01-26T23:32:00.218Z, 95.3
2023-01-26T23:34:00.107Z, 96.1
2023-01-26T23:36:00.132Z, 96.6
2023-01-26T23:38:00.090Z, 97.3
2023-01-26T23:40:00.085Z, 97.6
2023-01-26T23:42:00.102Z, 97.7
2023-01-26T23:44:00.096Z, 97.7
2023-01-26T23:46:00.112Z, 97.9
2023-01-26T23:48:00.093Z, 98.1
2023-01-26T23:50:00.128Z, 98.2
2023-01-26T23:52:00.095Z, 98.4
2023-01-26T23:54:00.100Z, 98.5
2023-01-26T23:56:00.096Z, 98.5
2023-01-26T23:58:00.132Z, 98.3
